Time;durP1;ratioP1;P1;durP2;ratioP2;P2;SDS_P1;SDS_P2;PMS_P1;PMS_P2;Temp;Humidity;BMP_temperature;BMP_pressure;BME280_temperature;BME280_humidity;BME280_pressure;Samples;Min_cycle;Max_cycle;Signal;HPM_P1;HPM_P2
2023/12/03 00:01:01;;;;;;;38.70;16.30;;;-1.00;99.90;;;-0.56;100.00;100918.53;5035494;28;20053;-74
2023/12/03 00:03:26;;;;;;;38.13;15.77;;;-1.00;99.90;;;-0.46;100.00;100914.91;5032425;28;20091;-74
2023/12/03 00:05:52;;;;;;;35.28;16.08;;;-1.00;99.90;;;-0.42;100.00;100915.44;5035623;28;20127;-73
2023/12/03 00:08:18;;;;;;;33.15;14.75;;;-1.00;99.90;;;-0.30;100.00;100919.72;5031858;28;20224;-73
2023/12/03 00:10:44;;;;;;;33.88;15.07;;;-1.00;99.90;;;-0.35;100.00;100910.38;5039440;28;20100;-74
2023/12/03 00:13:10;;;;;;;36.72;15.95;;;-1.00;99.90;;;-0.22;100.00;100916.34;5006075;28;20032;-73
2023/12/03 00:15:36;;;;;;;38.50;14.30;;;-1.00;99.90;;;-0.41;100.00;100913.63;5031882;28;20064;-73
2023/12/03 00:18:01;;;;;;;33.25;14.30;;;-1.00;99.90;;;-0.28;100.00;100916.88;5031350;28;20040;-71
2023/12/03 00:20:27;;;;;;;30.80;14.60;;;-0.90;99.90;;;-0.30;100.00;100918.84;5045913;28;20440;-74
2023/12/03 00:22:53;;;;;;;30.42;14.35;;;-0.90;99.90;;;-0.21;100.00;100911.81;5031545;28;20039;-74
2023/12/03 00:25:19;;;;;;;33.85;14.82;;;-0.90;99.90;;;-0.32;100.00;100910.97;5035650;28;20069;-74
2023/12/03 00:27:45;;;;;;;30.10;13.68;;;-0.90;99.90;;;-0.34;100.00;100906.72;5030268;28;20119;-74
2023/12/03 00:30:11;;;;;;;32.42;13.75;;;-0.90;99.90;;;-0.33;100.00;100920.00;5030462;28;20037;-75
2023/12/03 00:32:37;;;;;;;31.80;14.05;;;-0.90;99.90;;;-0.32;100.00;100907.41;5030490;28;20067;-74
2023/12/03 00:35:03;;;;;;;32.72;14.55;;;-0.90;99.90;;;-0.64;100.00;100911.16;5030543;28;20037;-74
2023/12/03 00:37:28;;;;;;;32.50;14.43;;;-1.00;99.90;;;-0.84;100.00;100910.28;5030541;28;20397;-74
2023/12/03 00:39:54;;;;;;;31.30;12.73;;;-1.00;99.90;;;-0.38;100.00;100905.31;5031034;28;20045;-74
2023/12/03 00:42:20;;;;;;;32.53;14.40;;;-1.00;99.90;;;-0.42;100.00;100919.97;5030731;28;20030;-74
2023/12/03 00:44:46;;;;;;;34.00;13.50;;;-1.00;99.90;;;-0.37;100.00;100917.72;5038039;28;20033;-74
2023/12/03 00:47:11;;;;;;;33.60;13.93;;;-1.10;99.90;;;-0.32;100.00;100918.16;5035483;28;20048;-75
2023/12/03 00:49:37;;;;;;;30.85;13.05;;;-1.00;99.90;;;-0.29;100.00;100923.22;5031044;28;20029;-74
2023/12/03 00:52:03;;;;;;;29.88;12.45;;;-1.00;99.90;;;-0.32;100.00;100918.16;5031069;28;20064;-74
2023/12/03 00:54:29;;;;;;;30.33;12.35;;;-1.00;99.90;;;-0.26;100.00;100922.97;5030156;28;20037;-74
2023/12/03 00:56:55;;;;;;;29.75;12.90;;;-1.00;99.90;;;-0.12;100.00;100932.44;5030923;28;20033;-74
2023/12/03 00:59:20;;;;;;;30.08;12.93;;;-1.00;99.90;;;0.00;100.00;100933.16;5030553;28;20075;-74
2023/12/03 01:01:46;;;;;;;31.08;13.43;;;-1.00;99.90;;;-0.05;100.00;100928.22;5030894;28;20034;-74
2023/12/03 01:04:12;;;;;;;30.20;13.43;;;-1.00;99.90;;;-0.03;100.00;100930.75;5030450;28;20045;-75
2023/12/03 01:06:38;;;;;;;25.90;12.38;;;-1.00;99.90;;;-0.01;100.00;100940.34;5036502;28;20037;-74
2023/12/03 01:09:03;;;;;;;28.48;13.20;;;-0.90;99.90;;;-0.05;100.00;100933.56;5039192;28;20125;-74
2023/12/03 01:11:29;;;;;;;29.90;13.40;;;-1.00;99.90;;;-0.17;100.00;100935.53;5035344;28;20041;-74
2023/12/03 01:13:55;;;;;;;32.05;13.60;;;-1.00;99.90;;;-0.08;100.00;100933.00;5045252;28;20029;-74
2023/12/03 01:16:20;;;;;;;28.80;13.25;;;-1.00;99.90;;;-0.16;100.00;100931.88;5030797;28;20045;-74
2023/12/03 01:18:46;;;;;;;28.27;12.35;;;-1.00;99.90;;;-0.17;100.00;100924.81;5030872;28;20032;-74
2023/12/03 01:21:12;;;;;;;30.75;13.38;;;-1.00;99.90;;;-0.31;100.00;100941.28;5032024;28;20091;-74
2023/12/03 01:23:37;;;;;;;29.35;12.93;;;-1.00;99.90;;;-0.33;100.00;100936.09;5027644;28;20048;-74
2023/12/03 01:26:04;;;;;;;33.38;13.18;;;-0.90;99.90;;;-0.26;100.00;100933.72;5029684;28;20048;-74
2023/12/03 01:28:30;;;;;;;31.52;13.50;;;-0.90;99.90;;;-0.20;100.00;100937.63;5030080;28;20036;-74
2023/12/03 01:30:56;;;;;;;33.38;13.50;;;-0.90;99.90;;;-0.33;100.00;100941.44;5029372;28;20365;-74
2023/12/03 01:33:21;;;;;;;34.33;15.23;;;-0.90;99.90;;;-0.27;100.00;100955.28;5039597;28;20041;-74
2023/12/03 01:35:47;;;;;;;34.13;14.18;;;-0.80;99.90;;;-0.27;100.00;100944.56;5030696;28;20045;-74
2023/12/03 01:38:13;;;;;;;34.95;14.85;;;-0.90;99.90;;;-0.22;100.00;100943.16;5017705;28;20037;-75
2023/12/03 01:40:38;;;;;;;32.63;14.05;;;-0.90;99.90;;;-0.32;100.00;100951.19;5030101;28;20037;-74
2023/12/03 01:43:04;;;;;;;31.25;13.52;;;-0.90;99.90;;;-0.46;100.00;100956.94;5012110;28;20046;-74
2023/12/03 01:45:30;;;;;;;37.08;15.35;;;-0.90;99.90;;;-0.44;100.00;100953.13;5031925;28;20033;-74
2023/12/03 01:47:56;;;;;;;38.65;17.05;;;-0.90;99.90;;;-0.50;100.00;100940.28;5029549;28;20044;-74
2023/12/03 01:50:23;;;;;;;36.35;16.13;;;-0.90;99.90;;;-0.30;100.00;100961.75;5045220;28;20036;-74
2023/12/03 01:52:50;;;;;;;41.42;16.65;;;-0.90;99.90;;;-0.32;100.00;100959.22;5027418;28;20061;-74
2023/12/03 01:55:18;;;;;;;47.50;18.23;;;-0.90;99.90;;;-0.16;100.00;100960.50;5029278;28;20033;-74
2023/12/03 01:57:45;;;;;;;40.83;16.73;;;-0.90;99.90;;;-0.17;100.00;100962.38;5036422;28;20319;-74
2023/12/03 02:00:11;;;;;;;41.35;18.27;;;-0.90;99.90;;;-0.20;100.00;100959.97;5032265;28;20128;-74
2023/12/03 02:02:40;;;;;;;40.55;16.95;;;-0.90;99.90;;;-0.10;100.00;100957.31;5043572;28;20053;-74
2023/12/03 02:05:06;;;;;;;42.28;18.10;;;-0.80;99.90;;;-0.14;100.00;100958.53;5029709;28;20038;-73
2023/12/03 02:07:32;;;;;;;43.17;17.70;;;-0.80;99.90;;;-0.31;100.00;100954.69;5034132;28;20032;-74
2023/12/03 02:09:59;;;;;;;40.83;16.65;;;-0.80;99.90;;;-0.22;100.00;100959.25;5043893;28;20060;-74
2023/12/03 02:12:26;;;;;;;41.20;18.05;;;-0.80;99.90;;;-0.12;100.00;100967.31;5010430;28;20061;-74
2023/12/03 02:14:52;;;;;;;43.88;18.45;;;-0.80;99.90;;;-0.20;100.00;100972.50;5025689;28;20025;-75
2023/12/03 02:17:18;;;;;;;38.85;17.25;;;-0.80;99.90;;;-0.01;100.00;100966.31;5028884;28;20037;-74
2023/12/03 02:19:43;;;;;;;48.50;18.98;;;-0.80;99.90;;;-0.07;100.00;100969.56;5028743;28;20049;-73
2023/12/03 02:22:09;;;;;;;42.85;18.83;;;-0.80;99.90;;;-0.06;100.00;100964.06;5028731;28;20041;-74
2023/12/03 02:24:35;;;;;;;45.63;18.40;;;-0.80;99.90;;;-0.02;100.00;100972.66;5028232;28;20128;-73
2023/12/03 02:27:00;;;;;;;46.20;19.95;;;-0.70;99.90;;;-0.04;100.00;100977.34;5015184;28;20046;-74
2023/12/03 02:29:26;;;;;;;52.17;20.27;;;-0.80;99.90;;;0.02;100.00;100970.56;5030564;28;20041;-74
2023/12/03 02:31:52;;;;;;;48.92;19.08;;;-0.70;99.90;;;0.06;100.00;100978.22;5029156;28;20084;-74
2023/12/03 02:34:17;;;;;;;50.22;19.77;;;-0.70;99.90;;;-0.20;100.00;100978.72;5035787;28;20477;-74
2023/12/03 02:36:43;;;;;;;49.40;21.30;;;-0.70;99.90;;;-0.08;100.00;100982.16;5029851;28;20120;-74
2023/12/03 02:39:09;;;;;;;50.78;20.42;;;-0.80;99.90;;;-0.19;100.00;100968.84;5035179;28;20408;-74
2023/12/03 02:41:35;;;;;;;48.00;20.20;;;-0.70;99.90;;;-0.27;100.00;100976.72;5028935;28;20033;-74
2023/12/03 02:44:00;;;;;;;53.53;21.27;;;-0.70;99.90;;;-0.39;100.00;100976.84;5033497;28;20129;-74
2023/12/03 02:46:26;;;;;;;53.25;20.45;;;-0.80;99.90;;;-0.27;100.00;100971.38;5013363;28;20046;-74
2023/12/03 02:48:52;;;;;;;50.03;21.13;;;-0.80;99.90;;;-0.48;100.00;100972.31;5015787;28;20026;-73
2023/12/03 02:51:17;;;;;;;56.70;21.23;;;-0.80;99.90;;;-0.35;100.00;100964.00;5033852;28;20045;-73
2023/12/03 02:53:45;;;;;;;56.38;23.15;;;-0.80;99.90;;;-0.22;100.00;100974.47;5033078;28;20063;-73
2023/12/03 02:56:12;;;;;;;57.75;22.77;;;-0.80;99.90;;;-0.20;100.00;100978.72;5057925;28;20086;-73
2023/12/03 02:58:39;;;;;;;58.30;23.67;;;-0.80;99.90;;;-0.23;100.00;100973.66;5034880;28;20053;-73
2023/12/03 03:01:06;;;;;;;59.25;23.73;;;-0.80;99.90;;;-0.17;100.00;100974.91;5032104;28;20053;-73
2023/12/03 03:03:32;;;;;;;63.85;23.25;;;-0.70;99.90;;;-0.50;100.00;100976.94;5033092;28;20034;-73
2023/12/03 03:05:57;;;;;;;60.40;24.00;;;-0.80;99.90;;;-0.49;100.00;100974.16;5031462;28;20044;-73
2023/12/03 03:08:23;;;;;;;67.05;26.23;;;-0.80;99.90;;;-0.64;100.00;100971.00;5049954;28;20033;-73
2023/12/03 03:10:49;;;;;;;65.15;24.73;;;-0.80;99.90;;;-0.45;100.00;100970.22;5029065;28;20048;-74
2023/12/03 03:13:14;;;;;;;61.50;23.88;;;-0.80;99.90;;;-0.47;100.00;100974.84;5031307;28;20037;-74
2023/12/03 03:15:40;;;;;;;62.55;23.40;;;-0.80;99.90;;;-0.42;100.00;100970.91;5031535;28;20049;-74
2023/12/03 03:18:06;;;;;;;65.05;24.17;;;-0.80;99.90;;;-0.51;100.00;100949.31;5033256;28;20037;-74
2023/12/03 03:20:32;;;;;;;60.55;24.38;;;-0.80;99.90;;;-0.56;100.00;100962.25;5031211;28;20037;-74
2023/12/03 03:22:57;;;;;;;66.32;25.25;;;-0.80;99.90;;;-0.36;100.00;100962.31;5033181;28;20456;-73
2023/12/03 03:25:23;;;;;;;63.42;24.48;;;-0.80;99.90;;;-0.28;100.00;100967.81;5032539;28;20064;-74
2023/12/03 03:27:49;;;;;;;65.38;24.70;;;-0.80;99.90;;;-0.11;100.00;100963.66;5030562;28;20417;-74
2023/12/03 03:30:14;;;;;;;66.10;24.05;;;-0.80;99.90;;;-0.37;100.00;100972.22;5036235;28;20040;-74
2023/12/03 03:32:40;;;;;;;63.83;23.30;;;-0.80;99.90;;;-0.27;100.00;100961.47;5035441;28;20401;-74
2023/12/03 03:35:07;;;;;;;60.67;24.35;;;-0.80;99.90;;;-0.16;100.00;100963.19;5027135;28;20489;-74
2023/12/03 03:37:32;;;;;;;67.88;24.17;;;-0.80;99.90;;;-0.22;100.00;100969.97;5007359;28;20033;-74
2023/12/03 03:39:58;;;;;;;64.00;24.75;;;-0.80;99.90;;;-0.17;100.00;100974.91;5031852;28;20095;-73
2023/12/03 03:42:24;;;;;;;66.80;26.42;;;-0.70;99.90;;;-0.08;100.00;100959.81;5028496;28;20044;-74
2023/12/03 03:44:49;;;;;;;68.32;25.23;;;-0.70;99.90;;;-0.10;100.00;100975.22;5031113;28;20032;-74
2023/12/03 03:47:15;;;;;;;68.20;25.65;;;-0.70;99.90;;;-0.05;100.00;100970.28;5033271;28;20098;-73
2023/12/03 03:49:42;;;;;;;66.22;24.92;;;-0.70;99.90;;;0.00;100.00;100968.03;5031166;28;20032;-74
2023/12/03 03:52:08;;;;;;;70.03;26.30;;;-0.70;99.90;;;0.05;100.00;100981.88;5026650;28;20067;-74
2023/12/03 03:54:33;;;;;;;65.63;26.20;;;-0.70;99.90;;;0.01;100.00;100985.84;5032373;28;20045;-74
2023/12/03 03:56:59;;;;;;;67.75;25.35;;;-0.70;99.90;;;0.07;100.00;100974.53;5032861;28;20116;-74
2023/12/03 03:59:25;;;;;;;68.63;26.48;;;-0.70;99.90;;;0.03;100.00;100973.13;5033384;28;20588;-74
2023/12/03 04:01:51;;;;;;;62.20;24.52;;;-0.60;99.90;;;0.08;100.00;100983.41;5031911;28;20041;-74
2023/12/03 04:04:17;;;;;;;62.30;25.52;;;-0.70;99.90;;;0.15;100.00;100987.25;5033896;28;20033;-74
2023/12/03 04:06:44;;;;;;;64.25;25.58;;;-0.60;99.90;;;0.16;100.00;100990.78;5031741;28;20034;-74
2023/12/03 04:09:12;;;;;;;62.30;24.92;;;-0.60;99.90;;;0.06;100.00;100988.94;5032173;28;20037;-74
2023/12/03 04:11:45;;;;;;;68.38;26.42;;;-0.60;99.90;;;0.11;100.00;100986.69;5029809;28;20048;-74
2023/12/03 04:14:15;;;;;;;65.72;24.40;;;-0.60;99.90;;;0.16;100.00;100993.47;5028847;28;20516;-74
2023/12/03 04:16:41;;;;;;;61.83;25.85;;;-0.60;99.90;;;0.20;100.00;100992.19;5030185;28;20033;-75
2023/12/03 04:19:08;;;;;;;61.40;24.92;;;-0.60;99.90;;;0.20;100.00;100989.50;5032356;28;20041;-76
2023/12/03 04:21:34;;;;;;;63.70;25.45;;;-0.60;99.90;;;0.25;100.00;100989.91;5035889;28;20041;-75
2023/12/03 04:23:59;;;;;;;69.13;27.27;;;-0.60;99.90;;;0.24;100.00;100985.53;5030910;28;20036;-75
2023/12/03 04:26:25;;;;;;;66.18;26.00;;;-0.60;99.90;;;0.27;100.00;100998.72;5017854;28;20053;-75
2023/12/03 04:28:52;;;;;;;68.90;27.27;;;-0.60;99.90;;;0.28;100.00;100995.03;5036982;28;20469;-75
2023/12/03 04:31:25;;;;;;;70.15;26.20;;;-0.60;99.90;;;0.22;100.00;100995.56;5032055;28;20140;-73
2023/12/03 04:33:56;;;;;;;63.58;27.13;;;-0.60;99.90;;;0.18;100.00;100991.47;5015968;28;20045;-75
2023/12/03 04:36:23;;;;;;;62.83;26.17;;;-0.60;99.90;;;0.22;100.00;100993.75;5038552;28;20043;-73
2023/12/03 04:38:53;;;;;;;68.10;26.92;;;-0.60;99.90;;;0.11;100.00;100986.69;5031935;28;20392;-73
2023/12/03 04:41:19;;;;;;;68.22;26.70;;;-0.60;99.90;;;0.24;100.00;100993.59;5025650;28;20434;-75
2023/12/03 04:43:45;;;;;;;70.88;27.88;;;-0.60;99.90;;;0.11;100.00;100989.38;5030979;28;20048;-75
2023/12/03 04:46:11;;;;;;;71.15;29.17;;;-0.60;99.90;;;0.04;100.00;100996.28;5029645;28;20385;-76
2023/12/03 04:48:40;;;;;;;72.82;28.30;;;-0.60;99.90;;;0.10;100.00;100990.34;5031193;28;20469;-75
2023/12/03 04:51:07;;;;;;;68.68;27.40;;;-0.60;99.90;;;0.14;100.00;100997.13;5030244;28;20033;-75
2023/12/03 04:53:32;;;;;;;75.22;29.08;;;-0.60;99.90;;;0.07;100.00;101004.06;5033058;28;20278;-77
2023/12/03 04:55:58;;;;;;;66.00;27.80;;;-0.60;99.90;;;0.18;100.00;100995.03;5044340;28;20508;-75
2023/12/03 04:58:25;;;;;;;72.28;29.08;;;-0.60;99.90;;;0.20;100.00;100995.72;5045984;28;20546;-74
2023/12/03 05:00:51;;;;;;;68.05;28.80;;;-0.60;99.90;;;0.17;100.00;101008.56;5029819;28;20045;-74
2023/12/03 05:03:16;;;;;;;76.95;28.65;;;-0.60;99.90;;;0.07;100.00;101008.56;5019157;28;20098;-74
2023/12/03 05:05:42;;;;;;;75.70;28.00;;;-0.60;99.90;;;0.06;100.00;101001.50;5029287;28;20430;-75
2023/12/03 05:08:08;;;;;;;73.28;28.48;;;-0.60;99.90;;;0.05;100.00;101014.09;5031104;28;20040;-74
2023/12/03 05:10:34;;;;;;;75.85;29.48;;;-0.60;99.90;;;0.20;100.00;101016.34;5029004;28;20040;-73
2023/12/03 05:12:59;;;;;;;75.47;29.83;;;-0.50;99.90;;;0.22;100.00;101017.03;5029918;28;20041;-74
2023/12/03 05:15:25;;;;;;;76.80;29.38;;;-0.50;99.90;;;0.25;100.00;101012.25;5030052;28;20045;-75
2023/12/03 05:17:51;;;;;;;77.88;29.70;;;-0.50;99.90;;;0.22;100.00;101009.00;5028550;28;20029;-74
2023/12/03 05:20:16;;;;;;;78.70;29.83;;;-0.50;99.90;;;0.22;100.00;101014.38;5030109;28;20397;-74
2023/12/03 05:22:42;;;;;;;79.90;30.77;;;-0.50;99.90;;;0.30;100.00;101014.53;5030245;28;20036;-75
2023/12/03 05:25:08;;;;;;;73.43;28.25;;;-0.50;99.90;;;0.37;100.00;101012.97;5029445;28;20489;-75
2023/12/03 05:27:34;;;;;;;78.38;29.20;;;-0.50;99.90;;;0.37;100.00;101010.28;5030309;28;20048;-75
2023/12/03 05:30:03;;;;;;;84.47;29.52;;;-0.50;99.90;;;0.39;100.00;101016.38;5030877;28;20033;-75
2023/12/03 05:32:29;;;;;;;73.88;27.80;;;-0.50;99.90;;;0.31;100.00;101023.41;5029657;28;20044;-75
2023/12/03 05:34:55;;;;;;;83.13;29.30;;;-0.50;99.90;;;0.41;100.00;101025.13;5030685;28;20049;-76
2023/12/03 05:37:21;;;;;;;72.88;30.20;;;-0.40;99.90;;;0.41;100.00;101027.81;5028507;28;20489;-76
2023/12/03 05:39:46;;;;;;;80.25;29.80;;;-0.40;99.90;;;0.40;100.00;101033.34;5034064;28;20092;-75
2023/12/03 05:42:15;;;;;;;78.50;30.38;;;-0.40;99.90;;;0.38;100.00;101035.28;5030566;28;20029;-76
2023/12/03 05:44:40;;;;;;;81.97;31.95;;;-0.40;99.90;;;0.38;100.00;101044.19;5033930;28;20045;-75
2023/12/03 05:47:06;;;;;;;80.80;29.85;;;-0.40;99.90;;;0.40;100.00;101042.22;5029852;28;20041;-75
2023/12/03 05:49:32;;;;;;;73.95;28.02;;;-0.40;99.90;;;0.41;100.00;101051.97;5048749;28;20390;-75
2023/12/03 05:51:58;;;;;;;77.55;29.13;;;-0.40;99.90;;;0.43;100.00;101049.97;5029745;28;20381;-73
2023/12/03 05:54:23;;;;;;;74.65;29.25;;;-0.40;99.90;;;0.48;100.00;101044.19;5027946;28;20037;-74
2023/12/03 05:56:49;;;;;;;71.68;27.95;;;-0.40;99.90;;;0.38;100.00;101056.75;5041723;28;20036;-73
2023/12/03 05:59:15;;;;;;;73.65;27.65;;;-0.40;99.90;;;0.39;100.00;101053.94;5035419;28;20053;-75
2023/12/03 06:01:40;;;;;;;79.70;29.70;;;-0.40;99.90;;;0.46;100.00;101064.97;5046370;28;20046;-76
2023/12/03 06:04:07;;;;;;;86.03;31.58;;;-0.40;99.90;;;0.51;100.00;101051.97;5029750;28;20037;-78
2023/12/03 06:06:36;;;;;;;74.32;29.85;;;-0.30;99.90;;;0.41;100.00;101059.19;5030017;28;20072;-75
2023/12/03 06:09:06;;;;;;;80.22;28.35;;;-0.30;99.90;;;0.48;100.00;101064.81;5032758;28;20084;-77
2023/12/03 06:11:32;;;;;;;72.88;28.65;;;-0.30;99.90;;;0.47;100.00;101068.50;5028704;28;20485;-78
2023/12/03 06:14:01;;;;;;;78.38;29.10;;;-0.30;99.90;;;0.47;100.00;101066.69;5029951;28;20033;-78
2023/12/03 06:16:27;;;;;;;76.72;28.35;;;-0.30;99.90;;;0.51;100.00;101072.59;5030285;28;20045;-78
2023/12/03 06:18:53;;;;;;;71.35;29.02;;;-0.30;99.90;;;0.46;100.00;101074.84;5039011;28;20037;-79
2023/12/03 06:21:19;;;;;;;76.55;29.15;;;-0.30;99.90;;;0.50;100.00;101070.91;5031326;28;20052;-77
2023/12/03 06:23:44;;;;;;;78.85;29.05;;;-0.30;99.90;;;0.42;100.00;101075.13;5017882;28;20484;-76
2023/12/03 06:26:10;;;;;;;74.20;29.40;;;-0.30;99.90;;;0.45;100.00;101070.47;5017170;28;20053;-80
2023/12/03 06:28:36;;;;;;;73.60;27.92;;;-0.30;99.90;;;0.57;100.00;101082.78;5027699;28;20099;-76
2023/12/03 06:31:06;;;;;;;77.43;29.35;;;-0.30;99.90;;;0.54;100.00;101078.53;5031494;28;20671;-79
2023/12/03 06:33:32;;;;;;;73.82;29.08;;;-0.30;99.90;;;0.51;100.00;101081.50;5031739;28;20029;-84
2023/12/03 06:35:57;;;;;;;77.60;28.83;;;-0.30;99.90;;;0.41;100.00;101068.06;5037018;28;20044;-78
2023/12/03 06:38:23;;;;;;;74.35;29.13;;;-0.30;99.90;;;0.58;100.00;101079.13;5032569;28;20029;-78
2023/12/03 06:40:49;;;;;;;76.97;29.20;;;-0.30;99.90;;;0.56;100.00;101073.03;5032714;28;20401;-78
2023/12/03 06:43:15;;;;;;;78.82;30.30;;;-0.30;99.90;;;0.56;100.00;101071.19;5033483;28;20497;-79
2023/12/03 06:45:41;;;;;;;70.65;28.48;;;-0.30;99.90;;;0.62;100.00;101068.94;5032802;28;20037;-78
2023/12/03 06:48:07;;;;;;;69.95;28.05;;;-0.30;99.90;;;0.53;100.00;101095.63;5020410;28;20048;-78
2023/12/03 06:50:33;;;;;;;76.10;28.58;;;-0.20;99.90;;;0.70;100.00;101086.03;5033220;28;20030;-78
2023/12/03 06:53:02;;;;;;;73.35;29.48;;;-0.20;99.90;;;0.69;100.00;101103.13;5032329;28;20038;-78
2023/12/03 06:55:28;;;;;;;68.30;28.83;;;-0.20;99.90;;;0.67;100.00;101101.59;5034913;28;20045;-78
2023/12/03 06:57:54;;;;;;;76.15;30.15;;;-0.20;99.90;;;0.70;100.00;101104.84;5044756;28;20026;-78
2023/12/03 07:00:20;;;;;;;85.35;31.60;;;-0.20;99.90;;;0.59;100.00;101094.25;5032526;28;20401;-77
2023/12/03 07:02:46;;;;;;;85.85;31.50;;;-0.10;99.90;;;0.68;100.00;101106.81;5015910;28;20037;-77
2023/12/03 07:05:11;;;;;;;82.55;31.98;;;0.00;99.90;;;0.75;100.00;101111.63;5034981;28;20121;-77
2023/12/03 07:07:37;;;;;;;84.22;33.47;;;0.00;99.90;;;0.66;100.00;101103.44;5032139;28;20041;-77
2023/12/03 07:10:04;;;;;;;89.22;33.15;;;0.10;99.90;;;0.73;100.00;101108.22;5032574;28;20040;-78
2023/12/03 07:12:30;;;;;;;93.22;37.17;;;0.10;99.90;;;0.47;100.00;101093.53;5038755;28;20039;-78
2023/12/03 07:14:56;;;;;;;84.97;34.28;;;0.20;99.90;;;0.39;100.00;101110.31;5049136;28;20036;-79
2023/12/03 07:17:22;;;;;;;96.60;34.38;;;0.20;99.90;;;0.60;100.00;101109.38;5040935;28;20028;-78
2023/12/03 07:19:48;;;;;;;108.18;39.10;;;0.20;99.90;;;0.39;100.00;101118.38;5035698;28;20041;-77
2023/12/03 07:22:14;;;;;;;99.20;36.63;;;0.20;99.90;;;0.32;100.00;101106.50;5031550;28;20582;-78
2023/12/03 07:24:41;;;;;;;94.35;35.42;;;0.20;99.90;;;0.59;100.00;101112.19;5031876;28;20452;-76
2023/12/03 07:27:07;;;;;;;104.63;36.20;;;0.30;99.90;;;0.59;100.00;101113.03;5042868;28;20460;-80
2023/12/03 07:29:34;;;;;;;108.53;37.63;;;0.30;99.90;;;0.51;100.00;101121.78;5032537;28;20025;-79
2023/12/03 07:32:00;;;;;;;105.53;37.55;;;0.30;99.90;;;0.42;100.00;101128.00;5029474;28;20029;-79
2023/12/03 07:34:26;;;;;;;104.10;40.15;;;0.30;99.90;;;0.43;100.00;101113.59;5038441;28;20075;-78
2023/12/03 07:36:53;;;;;;;105.95;39.25;;;0.30;99.90;;;0.59;100.00;101122.91;5034880;28;20064;-78
2023/12/03 07:39:19;;;;;;;107.78;41.88;;;0.40;99.90;;;0.32;100.00;101127.97;5031485;28;20060;-78
2023/12/03 07:41:53;;;;;;;107.38;39.60;;;0.40;99.90;;;0.55;100.00;101125.06;5041318;28;20124;-78
2023/12/03 07:44:19;;;;;;;99.03;37.20;;;0.40;99.90;;;0.67;100.00;101131.16;5045255;28;20033;-78
2023/12/03 07:46:45;;;;;;;104.28;41.47;;;0.40;99.90;;;0.41;100.00;101129.81;5037692;28;20037;-78
2023/12/03 07:49:10;;;;;;;99.50;37.80;;;0.40;99.90;;;0.36;100.00;101110.59;5039710;28;20088;-79
2023/12/03 07:51:36;;;;;;;108.35;41.17;;;0.40;99.90;;;0.53;100.00;101135.91;5034481;28;20037;-79
2023/12/03 07:54:02;;;;;;;112.78;40.95;;;0.40;99.90;;;0.59;100.00;101129.16;5039372;28;20041;-78
2023/12/03 07:56:38;;;;;;;98.18;36.78;;;0.40;99.90;;;1.07;100.00;101142.75;5032081;28;20442;-79
2023/12/03 07:59:05;;;;;;;108.32;40.42;;;0.50;99.90;;;0.70;100.00;101138.91;5037297;28;20042;-79
2023/12/03 08:01:31;;;;;;;104.03;37.42;;;0.50;99.90;;;1.11;100.00;101152.22;5037126;28;20037;-79
2023/12/03 08:03:58;;;;;;;106.50;37.97;;;0.50;99.90;;;0.94;100.00;101157.31;5031874;28;20033;-79
2023/12/03 08:06:24;;;;;;;94.63;36.63;;;0.50;99.90;;;1.02;100.00;101153.06;5032891;28;20037;-80
2023/12/03 08:08:52;;;;;;;101.97;36.83;;;0.50;99.90;;;0.99;100.00;101125.47;5036951;28;20073;-80
2023/12/03 08:11:20;;;;;;;97.80;38.28;;;0.50;99.90;;;1.25;100.00;101172.44;5029216;28;20136;-80
2023/12/03 08:13:47;;;;;;;102.00;37.20;;;0.60;99.90;;;1.52;100.00;101178.91;5014413;28;20033;-81
2023/12/03 08:16:13;;;;;;;102.72;35.70;;;0.60;99.90;;;1.44;100.00;101182.31;5030392;28;20037;-81
2023/12/03 08:18:39;;;;;;;105.18;37.63;;;0.60;99.90;;;1.54;100.00;101177.75;5037078;28;20060;-81
2023/12/03 08:21:05;;;;;;;100.88;36.90;;;0.70;99.90;;;1.65;100.00;101184.00;5035573;28;20099;-81
2023/12/03 08:23:32;;;;;;;102.05;38.08;;;0.70;99.90;;;1.78;100.00;101179.13;5028697;28;20037;-80
2023/12/03 08:25:59;;;;;;;101.47;37.47;;;0.80;99.90;;;1.82;100.00;101187.78;5029297;28;20025;-80
2023/12/03 08:28:25;;;;;;;102.13;38.30;;;0.80;99.90;;;1.80;100.00;101177.13;5034111;28;20048;-82
2023/12/03 08:30:50;;;;;;;97.10;37.05;;;0.80;99.90;;;1.88;100.00;101189.03;5048861;28;20089;-82
2023/12/03 08:33:16;;;;;;;108.88;38.47;;;0.90;99.90;;;1.93;100.00;101182.19;5037349;28;20551;-82
2023/12/03 08:35:43;;;;;;;101.47;38.17;;;0.90;99.90;;;1.95;100.00;101184.75;5031607;28;20044;-83
2023/12/03 08:38:09;;;;;;;104.40;37.85;;;1.00;99.90;;;1.84;100.00;101192.00;5038841;28;20095;-82
2023/12/03 08:40:34;;;;;;;102.68;38.10;;;1.00;99.90;;;1.78;100.00;101179.13;5030788;28;20049;-80
2023/12/03 08:43:00;;;;;;;101.03;37.47;;;1.00;99.90;;;1.82;100.00;101180.53;5032167;28;20045;-79
2023/12/03 08:45:26;;;;;;;94.30;36.55;;;1.00;99.90;;;2.03;100.00;101198.31;5029468;28;20046;-79
2023/12/03 08:47:52;;;;;;;95.20;34.85;;;1.10;99.90;;;1.92;100.00;101191.25;5030332;28;20247;-80
2023/12/03 08:50:18;;;;;;;95.75;35.95;;;1.10;99.90;;;2.10;100.00;101188.66;5038528;28;20036;-79
2023/12/03 08:52:44;;;;;;;89.30;35.30;;;1.20;99.90;;;2.20;100.00;101209.31;5041365;28;20038;-79
2023/12/03 08:55:09;;;;;;;85.50;34.70;;;1.20;99.90;;;2.20;100.00;101207.47;5035137;28;20045;-78
2023/12/03 08:57:36;;;;;;;86.88;33.58;;;1.30;99.90;;;1.98;100.00;101214.91;5026970;28;20049;-77
2023/12/03 09:00:07;;;;;;;79.53;32.35;;;1.20;99.90;;;2.07;100.00;101218.56;5031706;28;20056;-79
2023/12/03 09:02:33;;;;;;;72.70;31.60;;;1.20;99.90;;;1.87;100.00;101217.78;5041410;28;20374;-78
2023/12/03 09:04:59;;;;;;;79.45;31.73;;;1.20;99.90;;;1.78;100.00;101227.56;5029983;28;20076;-78
2023/12/03 09:07:25;;;;;;;78.53;32.65;;;1.10;99.90;;;1.94;100.00;101226.94;5031929;28;20507;-78
2023/12/03 09:09:51;;;;;;;76.03;31.42;;;1.10;99.90;;;1.85;100.00;101220.59;5019341;28;20029;-78
2023/12/03 09:12:17;;;;;;;73.88;31.13;;;1.10;99.90;;;1.85;100.00;101223.28;5038932;28;20036;-78
2023/12/03 09:14:43;;;;;;;78.68;31.02;;;1.10;99.90;;;1.78;100.00;101229.41;5030543;28;20045;-78
2023/12/03 09:17:09;;;;;;;76.25;30.10;;;1.10;99.90;;;1.77;100.00;101225.03;5030317;28;20041;-80
2023/12/03 09:19:34;;;;;;;79.90;31.60;;;1.10;99.90;;;1.88;100.00;101237.47;5028702;28;20038;-79
2023/12/03 09:22:00;;;;;;;79.57;31.45;;;1.20;99.90;;;1.81;100.00;101235.34;5030110;28;20033;-79
2023/12/03 09:24:26;;;;;;;78.70;30.50;;;1.20;99.90;;;1.79;100.00;101231.13;5031036;28;20548;-78
2023/12/03 09:26:51;;;;;;;78.18;30.75;;;1.20;99.90;;;1.65;100.00;101238.63;5030277;28;20041;-80
2023/12/03 09:29:17;;;;;;;88.43;31.65;;;1.10;99.90;;;1.69;100.00;101244.56;5035580;28;20089;-78
2023/12/03 09:31:43;;;;;;;88.47;32.38;;;1.10;99.90;;;1.80;100.00;101249.78;5029915;28;20453;-81
2023/12/03 09:34:09;;;;;;;83.72;32.30;;;1.20;99.90;;;1.80;100.00;101248.94;5029991;28;20090;-81
2023/12/03 09:36:35;;;;;;;83.57;31.73;;;1.20;99.90;;;1.89;100.00;101261.53;5017296;28;20489;-78
2023/12/03 09:39:02;;;;;;;87.43;31.80;;;1.30;99.90;;;1.98;100.00;101260.66;5033284;28;20033;-78
2023/12/03 09:41:33;;;;;;;78.70;28.77;;;1.40;99.90;;;2.10;100.00;101274.78;5030452;28;20051;-78
2023/12/03 09:44:07;;;;;;;77.55;32.00;;;1.40;99.90;;;2.08;100.00;101270.56;5010348;28;20037;-78
2023/12/03 09:46:38;;;;;;;77.90;29.60;;;1.60;99.90;;;2.06;100.00;101267.16;5018592;28;20037;-79
2023/12/03 09:49:10;;;;;;;71.57;28.90;;;1.60;99.90;;;2.05;100.00;101260.94;5031005;28;20049;-80
2023/12/03 09:51:41;;;;;;;77.35;29.92;;;1.70;99.90;;;1.75;100.00;101264.69;5030182;28;20033;-80
2023/12/03 09:54:08;;;;;;;71.70;29.55;;;1.60;99.90;;;2.25;100.00;101260.88;5015553;28;20045;-82